Flight Track Log - Related Links

Times and Time Zones

All times are in EDT time to prevent confusion due to time zone crossing. See the UCA4846 flight status page for this flight to view local times or setup timezone preferences in your user account.

Time Position Orientation Groundspeed Altitude Reporting Facility
EDT Latitude Longitude Course Direction KTS MPH feet Rate Location/Type
Tue 12:18:00 PM 41.2077 -75.1554 305° West  Level Estimated
Tue 12:19:00 PM 41.2401 -75.2185 304° West  Level Estimated
Tue 12:20:00 PM 41.2765 -75.2896 304° West  Level Estimated
Tue 12:21:00 PM 41.3129 -75.3609 304° West  Level Estimated
Tue 12:22:00 PM 41.3492 -75.4322 304° West  Level Estimated
Tue 12:23:00 PM 41.3855 -75.5035 304° West  Level Estimated
Tue 12:24:00 PM 41.4218 -75.5750 304° West  Level Estimated
Tue 12:25:00 PM 41.4580 -75.6466 304° West  Level Estimated
Tue 12:26:00 PM 41.4942 -75.7182 304° West  Level Estimated
Tue 12:27:00 PM 41.5303 -75.7899 304° West  Level Estimated
Tue 12:28:00 PM 41.5664 -75.8616 304° West  Level Estimated
Tue 12:29:00 PM 41.6024 -75.9335 304° West  Level Estimated
Tue 12:30:00 PM 41.6384 -76.0054 304° West  Level Estimated
Tue 12:31:00 PM 41.6744 -76.0775 304° West  Level Estimated
Tue 12:32:00 PM 41.7103 -76.1496 304° West  Level Estimated
Tue 12:33:00 PM 41.7461 -76.2218 304° West  Level Estimated
Tue 12:34:00 PM 41.7820 -76.2940 304° West  Level Estimated
Tue 12:35:00 PM 41.8177 -76.3664 304° West  Level Estimated
Tue 12:36:00 PM 41.8534 -76.4388 304° West  Level Estimated
Tue 12:37:00 PM 41.8891 -76.5113 303° West  Level Estimated
Tue 12:38:00 PM 41.9248 -76.5839 303° West  Level Estimated
Tue 12:39:00 PM 41.9603 -76.6566 303° West  Level Estimated
Tue 12:40:00 PM 41.9959 -76.7293 303° West  Level Estimated
Tue 12:41:00 PM 42.0314 -76.8022 303° West  Level Estimated
Tue 12:42:00 PM 42.0668 -76.8751 303° West  Level Estimated
Tue 12:43:00 PM 42.1022 -76.9481 303° West  Level Estimated
Tue 12:44:00 PM 42.1376 -77.0211 303° West  Level Estimated
Tue 12:45:00 PM 42.1729 -77.0943 303° West  Level Estimated
Tue 12:46:00 PM 42.2081 -77.1675 303° West  Level Estimated
Tue 12:47:00 PM 42.2434 -77.2409 303° West  Level Estimated
Tue 12:48:00 PM 42.2785 -77.3143 303° West  Level Estimated
Tue 12:49:00 PM 42.3136 -77.3878 303° West  Level Estimated
Tue 12:50:00 PM 42.3487 -77.4613 303° West  Level Estimated
Tue 12:51:00 PM 42.3838 -77.5350 303° West  Level Estimated
Tue 12:52:00 PM 42.4187 -77.6087 303° West  Level Estimated
Tue 12:53:00 PM 42.4537 -77.6825 303° West  Level Estimated
Tue 12:54:00 PM 42.4885 -77.7564 303° West  Level Estimated
Tue 12:55:00 PM 42.5234 -77.8304 303° West  Level Estimated
Tue 12:56:00 PM 42.5582 -77.9045 303° West  Level Estimated
Tue 12:57:00 PM 42.5929 -77.9786 302° West  Level Estimated
Tue 12:58:00 PM 42.6276 -78.0528 302° West  Level Estimated
Tue 12:59:00 PM 42.6623 -78.1271 302° West  Level Estimated
Tue 01:00:00 PM 42.6969 -78.2015 302° West  Level Estimated
Tue 01:01:00 PM 42.7314 -78.2760 302° West  Level Estimated
Tue 01:02:00 PM 42.7659 -78.3506 302° West  Level Estimated
Tue 01:03:00 PM 42.8004 -78.4252 302° West  Level Estimated
Tue 01:04:00 PM 42.8348 -78.4999 302° West  Level Estimated
Tue 01:05:00 PM 42.8691 -78.5747 302° West  Level Estimated
Tue 01:06:00 PM 42.9034 -78.6496 302° West  Level Estimated
Tue 01:07:00 PM 42.9377 -78.7246 302° West  Level Estimated
Tue 01:08:00 PM 42.9404 -78.7306 302° West  Level Estimated
Tue 01:09:00 PM 42.9404 -78.7306 216° Southwest  Level Estimated
Tue 01:10:00 PM 42.9404 -78.7306 216° Southwest  Level Estimated
Tue 01:11:00 PM 42.9404 -78.7306 216° Southwest  Level Estimated
Tue 01:12:00 PM 42.9404 -78.7306 216° Southwest  Level Estimated
Tue 01:13:00 PM 42.9404 -78.7306 216° Southwest  Level Estimated
Tue 01:14:00 PM 42.9404 -78.7306 216° Southwest  Level Estimated
Tue 01:15:00 PM 42.9404 -78.7306 216° Southwest  Level Estimated
Tue 01:16:00 PM 42.9404 -78.7306 216° Southwest  Level Estimated
Tue 01:17:00 PM 42.9404 -78.7306 216° Southwest  Level Estimated
Tue 01:18:00 PM 42.9404 -78.7306 216° Southwest  Level Estimated
Tue 01:19:00 PM 42.9404 -78.7306 216° Southwest  Level Estimated
Tue 01:20:00 PM 42.9404 -78.7306 216° Southwest  Level Estimated
Tue 01:21:00 PM 42.9404 -78.7306 216° Southwest  Level Estimated
Tue 01:22:00 PM 42.9404 -78.7306 216° Southwest  Level Estimated
Tue 01:23:00 PM 42.9404 -78.7306 216° Southwest  Level Estimated

Login

Don't have an account? Register now (free) for customized features, flight alerts, and more!